Kapcsolat

Általános információk:
+36 30 959-8897
Színpadi programok:
+36 30 927-6653
Földi bemutatók:
+36 30 956-2308
Ellátók, vásározók:
+36 30 703-5898

Élőkép

Információk

Albatrosz Repülő Egyesület
8000 Székesfehérvár,
Radványi utca 6.

Adószám:
19092908-2-07

Bankszámla szám:
Budapest Bank
10102952-01361819-00000001

Telefon: +36 30 9598-897

Telephey: Börgönd repülőtér

Börgöndi repülõtér

LHBP METAR/TAF

[source: ADDS]
METAR
TAF LHBP 011100Z 0112/0212 07009KT 9999 SCT040 BKN080 TEMPO 0112/0118 VRB14KT 6000 SHRA TSRA SCT010 FEW020CB BKN030 BECMG 0117/0120 04005KT BECMG 0122/0201 34008KT BECMG 0208/0211 CAVOK TAF
TAF LHBP 011100Z 0112/0212 07009KT 9999 SCT040 BKN080 TEMPO 0112/0118 VRB14KT 6000 SHRA TSRA SCT010 FEW020CB BKN030 BECMG 0117/0120 04005KT BECMG 0122/0201 34008KT BECMG 0208/0211 CAVOK =
SR / SS: 04:07 / 17:27 UTC (Börgönd 2014-09-01)
Hungarian Chinese (Simplified) Croatian Czech English Finnish French German Hebrew Italian Japanese Polish Portuguese Romanian Russian Serbian Slovak Slovenian Spanish

Belépés tagoknak